« Back
NWS Peachtree City, Ga » Text Product » CSG Terminal Aerodrome Forecast


Printer-friendly Version
Current Version              Previous Versions:   1  2  3  4  5  6  7  8  9  

Terminal Aerodrome Forecast

548
FTUS42 KFFC 230142 AAB
TAFCSG
TAF AMD
KCSG 230142Z 2302/2324 10009KT P6SM -RA BKN025
     FM230400 08008KT P6SM -RA OVC018
     FM230600 07008KT 4SM -RA BR OVC007
     FM231400 10010KT 2SM SHRA BR OVC007 PROB30 2315/2319 2SM TSRA
      OVC015CB
     FM232100 16012KT 2SM SHRA BR OVC009
     FM232300 20012G18KT 4SM BR BKN012=

USA.gov is the U.S. government's official web portal to all federal, state and local government web resources and services.